Time;durP1;ratioP1;P1;durP2;ratioP2;P2;SDS_P1;SDS_P2;PMS_P1;PMS_P2;Temp;Humidity;BMP_temperature;BMP_pressure;BME280_temperature;BME280_humidity;BME280_pressure;Samples;Min_cycle;Max_cycle;Signal;HPM_P1;HPM_P2
2023/09/03 03:00:43;;;;;;;;;;;22.40;59.30;;;;;;5802230;23;45793;-87
2023/09/03 03:03:09;;;;;;;;;;;22.30;59.30;;;;;;4828808;29;45378;-86
2023/09/03 03:05:34;;;;;;;;;;;22.30;59.30;;;;;;4874280;29;45810;-86
2023/09/03 03:08:02;;;;;;;;;;;22.40;59.30;;;;;;4878417;29;44676;-86
2023/09/03 03:10:28;;;;;;;;;;;22.40;59.30;;;;;;4882431;29;45065;-87
2023/09/03 03:12:54;;;;;;;;;;;22.40;59.30;;;;;;4853840;29;44816;-86
2023/09/03 03:15:19;;;;;;;;;;;22.40;59.30;;;;;;4863968;29;46154;-85
2023/09/03 03:17:45;;;;;;;;;;;22.40;59.30;;;;;;4846164;29;45602;-86
2023/09/03 03:20:10;;;;;;;;;;;22.30;59.20;;;;;;4845546;29;45554;-87
2023/09/03 03:22:36;;;;;;;;;;;22.40;59.20;;;;;;4863523;29;45237;-85
2023/09/03 03:25:02;;;;;;;;;;;22.30;59.20;;;;;;4851615;29;46720;-88
2023/09/03 03:27:28;;;;;;;;;;;22.30;59.20;;;;;;4844525;29;45465;-86
2023/09/03 03:29:54;;;;;;;;;;;22.30;59.20;;;;;;4853523;29;44955;-86
2023/09/03 03:32:19;;;;;;;;;;;22.40;59.20;;;;;;4856419;29;45697;-87
2023/09/03 03:34:45;;;;;;;;;;;22.30;59.10;;;;;;4848998;29;48149;-86
2023/09/03 03:37:10;;;;;;;;;;;22.40;59.20;;;;;;4868425;29;45589;-85
2023/09/03 03:39:36;;;;;;;;;;;22.30;59.10;;;;;;4864557;29;45593;-86
2023/09/03 03:42:02;;;;;;;;;;;22.30;59.10;;;;;;4858958;29;45524;-86
2023/09/03 03:44:27;;;;;;;;;;;22.40;59.20;;;;;;4851656;29;47272;-86
2023/09/03 03:46:53;;;;;;;;;;;22.30;59.10;;;;;;4857402;29;45383;-86
2023/09/03 03:49:18;;;;;;;;;;;22.30;59.10;;;;;;4862888;29;45146;-87
2023/09/03 03:51:44;;;;;;;;;;;22.40;59.20;;;;;;4863254;29;45461;-85
2023/09/03 03:54:10;;;;;;;;;;;22.40;59.20;;;;;;4850235;29;47192;-86
2023/09/03 03:56:35;;;;;;;;;;;22.30;59.10;;;;;;4853189;29;45385;-85
2023/09/03 03:59:01;;;;;;;;;;;22.30;59.10;;;;;;4868854;29;45681;-87
2023/09/03 04:01:26;;;;;;;;;;;22.30;59.10;;;;;;4841479;29;45588;-86
2023/09/03 04:03:52;;;;;;;;;;;22.30;59.10;;;;;;4869181;29;46425;-86
2023/09/03 04:06:17;;;;;;;;;;;22.30;59.10;;;;;;4876572;29;45075;-84
2023/09/03 04:08:43;;;;;;;;;;;22.40;59.20;;;;;;4869399;29;45456;-85
2023/09/03 04:11:09;;;;;;;;;;;22.30;59.10;;;;;;4841940;29;45345;-86
2023/09/03 04:13:35;;;;;;;;;;;22.30;59.10;;;;;;4881000;29;45440;-85
2023/09/03 04:16:00;;;;;;;;;;;22.40;59.20;;;;;;4861444;29;46166;-85
2023/09/03 04:18:26;;;;;;;;;;;22.30;59.10;;;;;;4870054;29;45556;-85
2023/09/03 04:20:52;;;;;;;;;;;22.30;59.10;;;;;;4870217;29;46189;-86
2023/09/03 04:23:18;;;;;;;;;;;22.30;59.10;;;;;;4871989;29;46250;-86
2023/09/03 04:25:44;;;;;;;;;;;22.30;59.10;;;;;;4849767;29;44687;-87
2023/09/03 04:28:09;;;;;;;;;;;22.30;59.10;;;;;;4872552;29;45242;-85
2023/09/03 04:30:38;;;;;;;;;;;22.30;59.10;;;;;;4856925;29;44768;-86
2023/09/03 04:33:06;;;;;;;;;;;22.30;59.10;;;;;;4868838;29;46500;-86
2023/09/03 04:35:31;;;;;;;;;;;22.30;59.10;;;;;;4857789;29;45591;-87
2023/09/03 04:37:57;;;;;;;;;;;22.30;59.10;;;;;;4868448;29;45235;-87
2023/09/03 04:40:24;;;;;;;;;;;22.30;59.10;;;;;;4845945;29;46145;-87
2023/09/03 04:42:49;;;;;;;;;;;22.30;59.10;;;;;;4870342;29;46494;-87
2023/09/03 04:45:15;;;;;;;;;;;22.30;59.10;;;;;;4848684;29;45422;-87
2023/09/03 04:47:41;;;;;;;;;;;22.30;59.10;;;;;;4876644;29;45277;-86
2023/09/03 04:50:07;;;;;;;;;;;22.30;59.10;;;;;;4880888;29;46168;-86
2023/09/03 04:52:34;;;;;;;;;;;22.30;59.10;;;;;;4865534;29;45262;-86
2023/09/03 04:54:59;;;;;;;;;;;22.30;59.10;;;;;;4870273;29;45662;-86
2023/09/03 04:57:25;;;;;;;;;;;22.30;59.10;;;;;;4860188;29;44982;-86
2023/09/03 04:59:51;;;;;;;;;;;22.30;59.10;;;;;;4881490;29;45828;-87
2023/09/03 05:02:17;;;;;;;;;;;22.30;59.10;;;;;;4856860;29;45993;-86
2023/09/03 05:04:43;;;;;;;;;;;22.30;59.10;;;;;;4850141;29;44918;-86
2023/09/03 05:07:08;;;;;;;;;;;22.30;59.10;;;;;;4878718;29;45454;-86
2023/09/03 05:09:34;;;;;;;;;;;22.30;59.10;;;;;;4866383;29;45303;-86
2023/09/03 05:11:59;;;;;;;;;;;22.30;59.10;;;;;;4878212;29;46680;-86
2023/09/03 05:14:25;;;;;;;;;;;22.30;59.00;;;;;;4855243;29;46181;-86
2023/09/03 05:16:51;;;;;;;;;;;22.30;59.10;;;;;;4872726;29;46241;-87
2023/09/03 05:19:17;;;;;;;;;;;22.30;59.10;;;;;;4859525;29;45558;-85
2023/09/03 05:21:43;;;;;;;;;;;22.30;59.00;;;;;;4863571;29;46248;-87
2023/09/03 05:24:10;;;;;;;;;;;22.30;59.00;;;;;;4851007;29;45275;-85
2023/09/03 05:26:36;;;;;;;;;;;22.30;59.00;;;;;;4855121;29;45275;-87
2023/09/03 05:29:04;;;;;;;;;;;22.30;59.10;;;;;;4869976;29;45663;-87
2023/09/03 05:31:30;;;;;;;;;;;22.30;59.10;;;;;;4844571;29;45535;-87
2023/09/03 05:33:56;;;;;;;;;;;22.30;59.00;;;;;;4861943;29;46127;-87
2023/09/03 05:36:22;;;;;;;;;;;22.30;59.00;;;;;;4845024;29;45571;-86
2023/09/03 05:38:48;;;;;;;;;;;22.30;59.10;;;;;;4873902;29;45691;-86
2023/09/03 05:41:14;;;;;;;;;;;22.30;59.60;;;;;;4873126;29;45858;-84
2023/09/03 05:43:39;;;;;;;;;;;22.30;59.10;;;;;;4849525;29;45190;-86
2023/09/03 05:46:05;;;;;;;;;;;22.30;59.60;;;;;;4858394;29;46239;-86
2023/09/03 05:48:31;;;;;;;;;;;22.30;59.00;;;;;;4864154;29;45393;-86
2023/09/03 05:50:57;;;;;;;;;;;22.30;59.00;;;;;;4858873;29;46526;-85
2023/09/03 05:53:23;;;;;;;;;;;22.30;59.00;;;;;;4861372;29;45474;-87
2023/09/03 05:55:49;;;;;;;;;;;22.30;59.00;;;;;;4856379;29;44693;-86
2023/09/03 05:58:14;;;;;;;;;;;22.30;59.00;;;;;;4842846;29;45698;-86
2023/09/03 06:00:41;;;;;;;;;;;22.30;59.00;;;;;;4857678;29;46498;-87
2023/09/03 06:03:07;;;;;;;;;;;22.30;59.00;;;;;;4848980;29;45422;-86
2023/09/03 06:05:32;;;;;;;;;;;22.30;59.00;;;;;;4874261;29;45745;-86
2023/09/03 06:08:00;;;;;;;;;;;22.30;59.00;;;;;;4849149;29;44707;-86
2023/09/03 06:10:25;;;;;;;;;;;22.30;59.10;;;;;;4847438;29;47035;-87
2023/09/03 06:12:51;;;;;;;;;;;22.30;59.00;;;;;;4870479;29;45337;-86
2023/09/03 06:15:16;;;;;;;;;;;22.30;59.00;;;;;;4862576;29;45704;-85
2023/09/03 06:17:42;;;;;;;;;;;22.30;59.00;;;;;;4845340;29;44912;-85
2023/09/03 06:20:10;;;;;;;;;;;22.30;59.10;;;;;;4859630;29;46174;-87
2023/09/03 06:22:36;;;;;;;;;;;22.30;59.00;;;;;;4875144;29;45817;-87
2023/09/03 06:25:01;;;;;;;;;;;22.30;59.00;;;;;;4869197;29;45251;-87
2023/09/03 06:27:29;;;;;;;;;;;22.30;59.00;;;;;;4844998;29;45213;-86
2023/09/03 06:29:55;;;;;;;;;;;22.30;59.10;;;;;;4882658;29;46385;-87
2023/09/03 06:32:21;;;;;;;;;;;22.30;59.10;;;;;;4858033;29;45160;-87
2023/09/03 06:34:46;;;;;;;;;;;22.30;59.00;;;;;;4876305;29;45710;-86
2023/09/03 06:37:12;;;;;;;;;;;22.30;59.10;;;;;;4862756;29;46026;-87
2023/09/03 06:39:38;;;;;;;;;;;22.30;59.00;;;;;;4865066;29;46056;-86
2023/09/03 06:42:04;;;;;;;;;;;22.30;59.10;;;;;;4876159;29;45270;-86
2023/09/03 06:44:30;;;;;;;;;;;22.30;59.00;;;;;;4866219;29;46113;-85
2023/09/03 06:46:55;;;;;;;;;;;22.30;59.10;;;;;;4874261;29;45907;-88
2023/09/03 06:49:21;;;;;;;;;;;22.30;59.00;;;;;;4851812;29;45567;-86
2023/09/03 06:51:46;;;;;;;;;;;22.30;59.10;;;;;;4862937;29;45433;-86
2023/09/03 06:54:12;;;;;;;;;;;22.30;59.10;;;;;;4868093;29;44891;-87
2023/09/03 06:56:38;;;;;;;;;;;22.30;59.10;;;;;;4879199;29;45668;-86
2023/09/03 06:59:04;;;;;;;;;;;22.30;59.10;;;;;;4847752;29;46890;-86
2023/09/03 07:01:29;;;;;;;;;;;22.30;59.10;;;;;;4840346;29;45746;-86
2023/09/03 07:03:55;;;;;;;;;;;22.30;59.10;;;;;;4846489;29;45866;-87
2023/09/03 07:06:21;;;;;;;;;;;22.30;59.10;;;;;;4879871;29;45606;-85
2023/09/03 07:08:47;;;;;;;;;;;22.30;59.00;;;;;;4881023;29;46162;-85
2023/09/03 07:11:13;;;;;;;;;;;22.30;59.00;;;;;;4879292;29;45228;-87
2023/09/03 07:13:38;;;;;;;;;;;22.30;59.00;;;;;;4865825;29;45243;-86
2023/09/03 07:16:04;;;;;;;;;;;22.30;59.10;;;;;;4859918;29;45394;-86
2023/09/03 07:18:30;;;;;;;;;;;22.30;59.10;;;;;;4848933;29;47498;-86
2023/09/03 07:21:02;;;;;;;;;;;22.30;59.00;;;;;;4860884;29;45280;-84
2023/09/03 07:23:28;;;;;;;;;;;22.30;59.10;;;;;;4829632;29;44789;-86
2023/09/03 07:25:53;;;;;;;;;;;22.30;59.00;;;;;;4876441;29;45822;-86
2023/09/03 07:28:19;;;;;;;;;;;22.30;59.10;;;;;;4865869;29;45932;-85
2023/09/03 07:30:45;;;;;;;;;;;22.30;59.00;;;;;;4857601;29;45247;-86
2023/09/03 07:33:10;;;;;;;;;;;22.20;59.00;;;;;;4846424;29;45215;-87
2023/09/03 07:35:36;;;;;;;;;;;22.30;59.10;;;;;;4844560;29;44929;-86
2023/09/03 07:38:01;;;;;;;;;;;22.30;59.10;;;;;;4861335;29;45959;-85
2023/09/03 07:40:28;;;;;;;;;;;22.30;59.10;;;;;;4855028;29;46206;-87
2023/09/03 07:42:53;;;;;;;;;;;22.30;59.10;;;;;;4840565;29;45875;-86
2023/09/03 07:45:19;;;;;;;;;;;22.30;59.10;;;;;;4858202;29;45458;-88
2023/09/03 07:47:44;;;;;;;;;;;22.30;59.10;;;;;;4851333;29;45445;-86
2023/09/03 07:50:10;;;;;;;;;;;22.30;59.10;;;;;;4859461;29;45359;-86
2023/09/03 07:52:36;;;;;;;;;;;22.30;59.10;;;;;;4860679;29;45304;-90
2023/09/03 07:55:01;;;;;;;;;;;22.30;59.10;;;;;;4856283;29;45150;-86
2023/09/03 07:57:31;;;;;;;;;;;22.30;59.10;;;;;;4858815;29;46356;-86
2023/09/03 07:59:56;;;;;;;;;;;22.30;59.10;;;;;;4843140;29;45474;-86
2023/09/03 08:02:23;;;;;;;;;;;22.30;59.10;;;;;;4848144;29;45318;-87
2023/09/03 08:04:48;;;;;;;;;;;22.20;59.10;;;;;;4843171;29;45443;-86
2023/09/03 08:07:14;;;;;;;;;;;22.30;59.10;;;;;;4842793;29;46282;-86
2023/09/03 08:09:39;;;;;;;;;;;22.30;59.10;;;;;;4860314;29;45582;-85
2023/09/03 08:12:06;;;;;;;;;;;22.30;59.10;;;;;;4842471;29;45624;-86
2023/09/03 08:14:32;;;;;;;;;;;22.30;59.10;;;;;;4858542;29;45327;-85
2023/09/03 08:16:58;;;;;;;;;;;22.30;59.10;;;;;;4858951;29;46131;-86
2023/09/03 08:19:23;;;;;;;;;;;22.30;59.10;;;;;;4873686;29;44962;-86
2023/09/03 08:21:48;;;;;;;;;;;22.30;59.10;;;;;;4859481;29;45406;-86
2023/09/03 08:24:14;;;;;;;;;;;22.30;59.20;;;;;;4875745;29;45255;-88
2023/09/03 08:26:40;;;;;;;;;;;22.30;59.10;;;;;;4855524;29;45858;-85
2023/09/03 08:29:06;;;;;;;;;;;22.30;59.10;;;;;;4858865;29;45339;-86
2023/09/03 08:31:31;;;;;;;;;;;22.30;59.10;;;;;;4867228;29;45877;-86
2023/09/03 08:33:57;;;;;;;;;;;22.30;59.10;;;;;;4841184;29;45634;-86
2023/09/03 08:36:24;;;;;;;;;;;22.30;59.20;;;;;;4857680;29;45622;-85
2023/09/03 08:38:50;;;;;;;;;;;22.30;59.10;;;;;;4873448;29;45153;-85
2023/09/03 08:41:15;;;;;;;;;;;22.30;59.10;;;;;;4855341;29;44712;-88
2023/09/03 08:43:41;;;;;;;;;;;22.30;59.20;;;;;;4843750;29;45486;-86
2023/09/03 08:46:09;;;;;;;;;;;22.30;59.10;;;;;;4867578;29;46019;-86
2023/09/03 08:48:34;;;;;;;;;;;22.30;59.10;;;;;;4840907;29;44698;-86
2023/09/03 08:51:00;;;;;;;;;;;22.30;59.10;;;;;;4872903;29;45883;-85
2023/09/03 08:53:26;;;;;;;;;;;22.30;59.10;;;;;;4865581;29;45612;-85
2023/09/03 08:55:51;;;;;;;;;;;22.30;59.20;;;;;;4862142;29;45641;-85
2023/09/03 08:58:17;;;;;;;;;;;22.30;59.20;;;;;;4878834;29;45604;-86
2023/09/03 09:00:43;;;;;;;;;;;22.30;59.10;;;;;;4840550;29;45455;-86
2023/09/03 09:03:11;;;;;;;;;;;22.30;59.20;;;;;;4835351;29;45513;-86
2023/09/03 09:05:36;;;;;;;;;;;22.30;59.10;;;;;;4857431;29;46556;-86
2023/09/03 09:08:02;;;;;;;;;;;22.30;59.10;;;;;;4849835;29;45166;-85
2023/09/03 09:10:32;;;;;;;;;;;22.30;59.10;;;;;;4861377;29;45054;-86
2023/09/03 09:13:01;;;;;;;;;;;22.30;59.20;;;;;;4848729;29;45503;-87
2023/09/03 09:15:26;;;;;;;;;;;22.30;59.20;;;;;;4870881;29;45541;-86
2023/09/03 09:17:52;;;;;;;;;;;22.30;59.20;;;;;;4846011;29;45464;-86
2023/09/03 09:20:19;;;;;;;;;;;22.30;59.20;;;;;;4846716;29;45254;-86
2023/09/03 09:22:48;;;;;;;;;;;22.30;59.10;;;;;;4852634;29;45139;-85
2023/09/03 09:25:24;;;;;;;;;;;22.30;59.20;;;;;;4858945;29;45992;-86
2023/09/03 09:27:51;;;;;;;;;;;22.30;59.20;;;;;;4879890;29;45673;-85
2023/09/03 09:30:19;;;;;;;;;;;22.30;59.20;;;;;;4873037;29;45341;-86
2023/09/03 09:32:45;;;;;;;;;;;22.30;59.20;;;;;;4863791;29;45562;-86
2023/09/03 09:35:21;;;;;;;;;;;22.30;59.20;;;;;;4846553;29;45997;-86
2023/09/03 09:37:47;;;;;;;;;;;22.30;59.20;;;;;;4861214;29;45652;-85
2023/09/03 09:40:14;;;;;;;;;;;22.30;59.10;;;;;;4860955;29;45670;-86
2023/09/03 09:42:50;;;;;;;;;;;22.30;59.20;;;;;;4862989;29;46424;-85
2023/09/03 09:45:16;;;;;;;;;;;22.30;59.20;;;;;;4852481;29;46415;-87
2023/09/03 09:47:42;;;;;;;;;;;22.30;59.20;;;;;;4860131;29;46346;-86
2023/09/03 09:50:07;;;;;;;;;;;22.30;59.20;;;;;;4845664;29;46056;-86
2023/09/03 09:52:34;;;;;;;;;;;22.30;59.10;;;;;;4862394;29;44943;-87
2023/09/03 09:55:00;;;;;;;;;;;22.40;59.20;;;;;;4848903;29;46513;-86
2023/09/03 09:57:27;;;;;;;;;;;22.30;59.10;;;;;;4859782;29;45310;-85
2023/09/03 09:59:53;;;;;;;;;;;22.30;59.20;;;;;;4863097;29;46367;-85
2023/09/03 10:02:19;;;;;;;;;;;22.30;59.10;;;;;;4852143;29;45201;-86
2023/09/03 10:04:46;;;;;;;;;;;22.30;59.20;;;;;;4873504;29;45737;-85
2023/09/03 10:07:11;;;;;;;;;;;22.30;59.20;;;;;;4856562;29;45686;-85
2023/09/03 10:09:37;;;;;;;;;;;22.30;59.10;;;;;;4875338;29;45330;-86
2023/09/03 10:12:07;;;;;;;;;;;22.40;59.20;;;;;;4839467;29;45704;-86
2023/09/03 10:14:33;;;;;;;;;;;22.30;59.10;;;;;;4877060;29;45288;-86
2023/09/03 10:17:08;;;;;;;;;;;22.40;59.20;;;;;;4838922;29;45327;-85
2023/09/03 10:19:37;;;;;;;;;;;22.40;59.30;;;;;;4860989;29;45205;-85
2023/09/03 10:22:03;;;;;;;;;;;22.30;59.20;;;;;;4857879;29;45305;-85
2023/09/03 10:24:29;;;;;;;;;;;22.40;59.20;;;;;;4862317;29;45961;-86
2023/09/03 10:26:59;;;;;;;;;;;22.40;59.20;;;;;;4837277;29;45259;-85
2023/09/03 10:29:25;;;;;;;;;;;22.40;59.20;;;;;;4872249;29;45626;-84
2023/09/03 10:31:51;;;;;;;;;;;22.40;59.20;;;;;;4848757;29;45264;-85
2023/09/03 10:34:17;;;;;;;;;;;22.40;59.20;;;;;;4847422;29;46056;-85
2023/09/03 10:37:02;;;;;;;;;;;22.40;59.20;;;;;;4858465;29;45849;-86
2023/09/03 10:39:28;;;;;;;;;;;22.40;59.30;;;;;;4860914;29;45152;-85
2023/09/03 10:42:13;;;;;;;;;;;22.40;59.20;;;;;;4870452;29;46490;-84
2023/09/03 10:44:41;;;;;;;;;;;22.40;59.20;;;;;;4875055;29;46547;-86
2023/09/03 10:47:07;;;;;;;;;;;22.40;59.30;;;;;;4856838;29;45429;-86
2023/09/03 10:49:42;;;;;;;;;;;22.40;59.30;;;;;;4873338;29;45584;-87
2023/09/03 10:52:26;;;;;;;;;;;22.40;59.30;;;;;;4871878;29;45436;-85
2023/09/03 10:55:09;;;;;;;;;;;22.40;59.30;;;;;;4872925;29;46531;-86
2023/09/03 10:57:36;;;;;;;;;;;22.40;59.30;;;;;;4840267;29;46458;-86
2023/09/03 11:00:05;;;;;;;;;;;22.40;59.30;;;;;;4868615;29;45728;-85
2023/09/03 11:02:31;;;;;;;;;;;22.40;59.30;;;;;;4863104;29;45500;-85
2023/09/03 11:05:12;;;;;;;;;;;22.40;59.30;;;;;;4847769;29;46974;-86
2023/09/03 11:07:38;;;;;;;;;;;22.40;59.30;;;;;;4846871;29;45486;-86
2023/09/03 11:10:19;;;;;;;;;;;22.40;59.30;;;;;;4861183;29;45751;-86
2023/09/03 11:12:45;;;;;;;;;;;22.40;59.30;;;;;;4845941;29;45497;-84
2023/09/03 11:15:11;;;;;;;;;;;22.40;59.30;;;;;;4872460;29;45075;-86
2023/09/03 11:17:37;;;;;;;;;;;22.40;59.30;;;;;;4858498;29;46339;-86
2023/09/03 11:20:03;;;;;;;;;;;22.40;59.30;;;;;;4874160;29;45772;-84
2023/09/03 11:22:36;;;;;;;;;;;22.40;59.30;;;;;;4842096;29;45052;-87
2023/09/03 11:25:02;;;;;;;;;;;22.40;59.30;;;;;;4848374;29;46316;-86
2023/09/03 11:27:29;;;;;;;;;;;22.40;59.30;;;;;;4859751;29;45556;-86
2023/09/03 11:30:02;;;;;;;;;;;22.40;59.30;;;;;;4860200;29;45497;-87
2023/09/03 11:32:36;;;;;;;;;;;22.40;59.30;;;;;;4855346;29;46278;-86
2023/09/03 11:35:05;;;;;;;;;;;22.40;59.30;;;;;;4875412;29;45931;-86
2023/09/03 11:37:31;;;;;;;;;;;22.40;59.30;;;;;;4844305;29;44626;-88
2023/09/03 11:39:56;;;;;;;;;;;22.40;59.30;;;;;;4847796;29;45426;-86
2023/09/03 11:42:22;;;;;;;;;;;22.50;59.30;;;;;;4833249;29;45152;-85
2023/09/03 11:44:51;;;;;;;;;;;22.50;59.30;;;;;;4843314;29;46133;-86
2023/09/03 11:47:16;;;;;;;;;;;22.50;59.30;;;;;;4856546;29;45224;-86
2023/09/03 11:49:47;;;;;;;;;;;22.50;59.30;;;;;;4874362;29;45219;-86
2023/09/03 11:52:14;;;;;;;;;;;22.50;59.30;;;;;;4843802;29;46178;-86
2023/09/03 11:54:39;;;;;;;;;;;22.50;59.30;;;;;;4861157;29;47292;-86
2023/09/03 11:57:05;;;;;;;;;;;22.50;59.40;;;;;;4860287;29;44616;-86
2023/09/03 11:59:33;;;;;;;;;;;22.40;59.30;;;;;;4861988;29;45613;-87
2023/09/03 12:01:59;;;;;;;;;;;22.50;59.40;;;;;;4846113;29;45176;-87
2023/09/03 12:04:24;;;;;;;;;;;22.50;59.30;;;;;;4846379;23;46214;-51
2023/09/03 12:06:50;;;;;;;;;;;22.50;59.30;;;;;;4835858;29;45411;-54
2023/09/03 12:09:20;;;;;;;;;;;22.50;59.30;;;;;;4852443;29;45202;-55
2023/09/03 12:11:46;;;;;;;;;;;22.50;59.30;;;;;;4831984;29;46325;-55
2023/09/03 12:14:11;;;;;;;;;;;22.50;59.30;;;;;;4835763;29;46132;-54
2023/09/03 12:16:46;;;;;;;;;;;22.50;59.30;;;;;;4817405;29;45388;-53
2023/09/03 12:19:11;;;;;;;;;;;22.50;59.30;;;;;;4840309;29;44890;-53
2023/09/03 12:21:37;;;;;;;;;;;22.50;59.30;;;;;;4827179;29;46257;-55
2023/09/03 12:24:06;;;;;;;;;;;22.50;59.30;;;;;;4839959;29;46033;-53
2023/09/03 12:26:34;;;;;;;;;;;22.50;59.30;;;;;;4850794;23;45855;-55
2023/09/03 12:29:01;;;;;;;;;;;22.50;59.30;;;;;;4857320;28;45275;-54
2023/09/03 12:31:40;;;;;;;;;;;22.50;59.30;;;;;;4852976;28;45187;-56
2023/09/03 12:34:05;;;;;;;;;;;22.50;59.30;;;;;;4868673;28;45624;-55
2023/09/03 12:36:31;;;;;;;;;;;22.50;59.30;;;;;;4866073;28;45712;-53
2023/09/03 12:38:57;;;;;;;;;;;22.50;59.80;;;;;;4868160;28;44779;-52
2023/09/03 12:41:24;;;;;;;;;;;22.50;59.30;;;;;;4866073;28;45738;-54
2023/09/03 12:43:49;;;;;;;;;;;22.50;59.30;;;;;;4873599;28;46058;-54
2023/09/03 12:46:15;;;;;;;;;;;22.50;59.30;;;;;;4857545;28;46417;-54
2023/09/03 12:48:44;;;;;;;;;;;22.50;59.30;;;;;;4865246;28;45815;-53
2023/09/03 12:51:15;;;;;;;;;;;22.50;59.30;;;;;;4864808;28;45314;-54
2023/09/03 12:53:40;;;;;;;;;;;22.50;59.30;;;;;;4872053;28;45531;-53
2023/09/03 12:56:06;;;;;;;;;;;22.50;59.30;;;;;;4863948;28;45453;-54
2023/09/03 12:58:31;;;;;;;;;;;22.50;59.30;;;;;;4873402;28;47147;-53
2023/09/03 13:00:57;;;;;;;;;;;22.50;59.40;;;;;;4851880;28;46089;-55
2023/09/03 13:03:22;;;;;;;;;;;22.50;59.30;;;;;;4868058;28;45896;-54
2023/09/03 13:05:48;;;;;;;;;;;22.50;59.30;;;;;;4849358;28;45303;-50
2023/09/03 13:08:13;;;;;;;;;;;22.60;59.40;;;;;;4869618;28;45130;-54
2023/09/03 13:10:39;;;;;;;;;;;22.60;59.40;;;;;;4860087;28;45733;-53
2023/09/03 13:13:05;;;;;;;;;;;22.50;59.30;;;;;;4873757;28;45524;-53
2023/09/03 13:15:30;;;;;;;;;;;22.60;59.40;;;;;;4860811;28;45400;-55
2023/09/03 13:17:56;;;;;;;;;;;22.60;59.30;;;;;;4861999;28;45470;-53
2023/09/03 13:20:21;;;;;;;;;;;22.50;59.30;;;;;;4862129;28;46895;-53
2023/09/03 13:22:47;;;;;;;;;;;22.50;59.40;;;;;;4873178;28;45251;-51
2023/09/03 13:25:12;;;;;;;;;;;22.60;59.40;;;;;;4863055;28;46190;-57
2023/09/03 13:27:38;;;;;;;;;;;22.60;59.40;;;;;;4869099;28;45325;-57
2023/09/03 13:30:07;;;;;;;;;;;22.60;59.40;;;;;;4870498;28;45325;-56
2023/09/03 13:32:33;;;;;;;;;;;22.60;59.40;;;;;;4855799;28;46018;-54
2023/09/03 13:34:58;;;;;;;;;;;22.60;59.40;;;;;;4872380;28;45979;-52
2023/09/03 13:37:24;;;;;;;;;;;22.60;59.40;;;;;;4863004;28;45964;-55
2023/09/03 13:39:49;;;;;;;;;;;22.60;59.40;;;;;;4870276;28;45329;-52
2023/09/03 13:42:15;;;;;;;;;;;22.60;59.30;;;;;;4861158;28;46018;-53
2023/09/03 13:44:40;;;;;;;;;;;22.60;59.40;;;;;;4874956;28;45416;-54
2023/09/03 13:47:06;;;;;;;;;;;22.60;59.40;;;;;;4853527;28;45498;-56
2023/09/03 13:49:31;;;;;;;;;;;22.60;59.40;;;;;;4873951;28;46224;-53
2023/09/03 13:51:57;;;;;;;;;;;22.60;59.40;;;;;;4863238;28;45850;-52
2023/09/03 13:54:22;;;;;;;;;;;22.60;59.40;;;;;;4878199;28;45898;-54
2023/09/03 13:56:47;;;;;;;;;;;22.60;60.00;;;;;;4854456;28;45415;-53
2023/09/03 13:59:13;;;;;;;;;;;22.60;59.40;;;;;;4872654;28;45994;-54
2023/09/03 14:01:38;;;;;;;;;;;22.60;59.40;;;;;;4847561;28;46151;-55
2023/09/03 14:04:04;;;;;;;;;;;22.60;59.40;;;;;;4872498;28;45270;-54
2023/09/03 14:06:30;;;;;;;;;;;22.60;59.40;;;;;;4867909;28;46021;-54
2023/09/03 14:08:56;;;;;;;;;;;22.60;59.40;;;;;;4864067;28;45467;-51
2023/09/03 14:11:22;;;;;;;;;;;22.60;59.40;;;;;;4865118;28;46354;-50
2023/09/03 14:13:48;;;;;;;;;;;22.60;59.40;;;;;;4875227;28;45926;-54
2023/09/03 14:16:17;;;;;;;;;;;22.60;59.40;;;;;;4860305;28;45980;-56
2023/09/03 14:18:43;;;;;;;;;;;22.60;59.40;;;;;;4871436;28;46350;-53
2023/09/03 14:21:08;;;;;;;;;;;22.60;59.40;;;;;;4859590;28;46205;-55
2023/09/03 14:23:34;;;;;;;;;;;22.60;59.40;;;;;;4870454;28;45894;-53
2023/09/03 14:25:59;;;;;;;;;;;22.60;59.40;;;;;;4860325;28;45476;-56
2023/09/03 14:28:25;;;;;;;;;;;22.70;59.50;;;;;;4865831;28;44799;-53
2023/09/03 14:30:50;;;;;;;;;;;22.60;59.40;;;;;;4847651;28;45331;-52
2023/09/03 14:33:16;;;;;;;;;;;22.70;59.40;;;;;;4862401;28;47057;-57
2023/09/03 14:35:41;;;;;;;;;;;22.60;59.40;;;;;;4863980;28;45116;-54
2023/09/03 14:38:07;;;;;;;;;;;22.70;59.50;;;;;;4862486;28;45982;-53
2023/09/03 14:40:32;;;;;;;;;;;22.60;59.40;;;;;;4861948;28;45329;-55
2023/09/03 14:42:58;;;;;;;;;;;22.70;59.50;;;;;;4867517;28;45733;-54
2023/09/03 14:45:23;;;;;;;;;;;22.70;59.50;;;;;;4857955;28;46106;-56
2023/09/03 14:47:49;;;;;;;;;;;22.70;59.50;;;;;;4861878;28;46277;-53
2023/09/03 14:50:14;;;;;;;;;;;22.70;59.40;;;;;;4846888;28;46135;-51
2023/09/03 14:52:39;;;;;;;;;;;22.70;59.50;;;;;;4873095;28;45454;-54
2023/09/03 14:55:05;;;;;;;;;;;22.70;59.50;;;;;;4869474;28;46286;-56
2023/09/03 14:57:31;;;;;;;;;;;22.70;59.50;;;;;;4869877;28;45289;-53
2023/09/03 14:59:57;;;;;;;;;;;22.70;59.50;;;;;;4873145;28;45903;-54
2023/09/03 15:02:22;;;;;;;;;;;22.70;59.50;;;;;;4852255;28;45971;-52
2023/09/03 15:04:48;;;;;;;;;;;22.70;59.50;;;;;;4865189;28;44723;-55
2023/09/03 15:07:13;;;;;;;;;;;22.70;59.50;;;;;;4863369;28;45932;-53
2023/09/03 15:09:39;;;;;;;;;;;22.70;59.50;;;;;;4875662;28;45605;-54
2023/09/03 15:12:04;;;;;;;;;;;22.70;59.50;;;;;;4861592;28;45337;-55
2023/09/03 15:14:31;;;;;;;;;;;22.70;59.50;;;;;;4872121;28;45279;-56
2023/09/03 15:16:56;;;;;;;;;;;22.70;59.50;;;;;;4854285;28;45202;-54
2023/09/03 15:19:22;;;;;;;;;;;22.70;59.50;;;;;;4870964;28;45039;-54
2023/09/03 15:21:48;;;;;;;;;;;22.70;59.50;;;;;;4861999;28;45513;-55
2023/09/03 15:24:15;;;;;;;;;;;22.70;59.60;;;;;;4874495;28;44665;-56
2023/09/03 15:26:40;;;;;;;;;;;22.70;59.50;;;;;;4867596;28;45707;-51
2023/09/03 15:29:06;;;;;;;;;;;22.70;59.50;;;;;;4867707;28;45325;-55
2023/09/03 15:31:33;;;;;;;;;;;22.70;59.50;;;;;;4831920;28;45729;-54
2023/09/03 15:33:58;;;;;;;;;;;22.70;59.50;;;;;;4863811;28;45878;-52
2023/09/03 15:36:24;;;;;;;;;;;22.80;59.50;;;;;;4863781;28;46280;-52
2023/09/03 15:38:49;;;;;;;;;;;22.80;59.50;;;;;;4850020;28;46246;-56
2023/09/03 15:41:15;;;;;;;;;;;22.70;59.50;;;;;;4859328;28;45753;-53
2023/09/03 15:43:40;;;;;;;;;;;22.70;59.50;;;;;;4876648;28;45463;-53
2023/09/03 15:46:06;;;;;;;;;;;22.70;59.50;;;;;;4850373;28;45774;-53
2023/09/03 15:48:32;;;;;;;;;;;22.80;59.60;;;;;;4868436;28;46452;-53
2023/09/03 15:50:57;;;;;;;;;;;22.70;59.50;;;;;;4860050;28;45940;-51
2023/09/03 15:53:25;;;;;;;;;;;22.80;59.60;;;;;;4868807;28;46432;-54
2023/09/03 15:55:51;;;;;;;;;;;22.80;59.50;;;;;;4862260;28;45505;-56
2023/09/03 15:58:16;;;;;;;;;;;22.80;59.60;;;;;;4860754;28;45905;-55
2023/09/03 16:00:44;;;;;;;;;;;22.80;59.50;;;;;;4848800;28;45907;-54
2023/09/03 16:03:10;;;;;;;;;;;22.70;59.50;;;;;;4857235;28;46061;-50
2023/09/03 16:05:35;;;;;;;;;;;22.80;59.50;;;;;;4840457;28;45827;-56
2023/09/03 16:08:01;;;;;;;;;;;22.80;59.60;;;;;;4859781;28;45829;-55
2023/09/03 16:10:28;;;;;;;;;;;22.80;59.50;;;;;;4865026;28;45018;-54
2023/09/03 16:12:57;;;;;;;;;;;22.80;59.50;;;;;;4865842;28;45937;-54
2023/09/03 16:15:23;;;;;;;;;;;22.80;59.60;;;;;;4857552;28;45834;-51
2023/09/03 16:17:48;;;;;;;;;;;22.80;59.50;;;;;;4864702;28;45720;-56
2023/09/03 16:20:14;;;;;;;;;;;22.80;59.50;;;;;;4851767;28;45449;-52
2023/09/03 16:22:39;;;;;;;;;;;22.80;59.60;;;;;;4862308;28;45943;-54
2023/09/03 16:25:05;;;;;;;;;;;22.80;59.60;;;;;;4859468;28;45895;-52
2023/09/03 16:27:31;;;;;;;;;;;22.80;59.60;;;;;;4851904;28;45912;-52
2023/09/03 16:29:56;;;;;;;;;;;22.80;59.60;;;;;;4858291;28;44855;-57
2023/09/03 16:32:22;;;;;;;;;;;22.80;59.60;;;;;;4848326;28;45570;-52
2023/09/03 16:34:49;;;;;;;;;;;22.80;59.60;;;;;;4871649;28;46792;-55
2023/09/03 16:37:14;;;;;;;;;;;22.80;59.60;;;;;;4857285;28;46908;-53
2023/09/03 16:39:40;;;;;;;;;;;22.80;59.60;;;;;;4867016;28;45618;-53
2023/09/03 16:42:05;;;;;;;;;;;22.80;59.60;;;;;;4856791;28;46450;-54
2023/09/03 16:44:31;;;;;;;;;;;22.80;59.60;;;;;;4871345;28;45772;-50
2023/09/03 16:46:56;;;;;;;;;;;22.80;59.60;;;;;;4847400;28;45501;-55
2023/09/03 16:49:22;;;;;;;;;;;22.80;59.60;;;;;;4866928;28;45698;-55
2023/09/03 16:51:47;;;;;;;;;;;22.80;59.60;;;;;;4854559;28;46500;-54
2023/09/03 16:54:13;;;;;;;;;;;22.80;59.60;;;;;;4861691;28;45717;-53
2023/09/03 16:56:38;;;;;;;;;;;22.80;59.60;;;;;;4858819;28;45859;-54
2023/09/03 16:59:04;;;;;;;;;;;22.80;59.60;;;;;;4863425;28;45049;-55
2023/09/03 17:01:29;;;;;;;;;;;22.80;59.60;;;;;;4839236;28;46316;-54
2023/09/03 17:03:55;;;;;;;;;;;22.80;59.60;;;;;;4852000;28;45460;-53
2023/09/03 17:06:21;;;;;;;;;;;22.80;59.60;;;;;;4841732;28;47173;-53
2023/09/03 17:08:47;;;;;;;;;;;22.80;59.60;;;;;;4866788;28;45458;-54
2023/09/03 17:11:12;;;;;;;;;;;22.80;59.60;;;;;;4844407;28;45521;-55